createdAt,value
2019-05-30T00:04:30.164Z,1.40
2019-05-30T00:10:48.813Z,2.40
2019-05-30T00:13:05.620Z,2.93
2019-05-30T00:15:54.585Z,2.50
2019-05-30T00:18:23.686Z,1.70
2019-05-30T00:20:52.792Z,2.13
2019-05-30T00:23:50.588Z,1.80
2019-05-30T00:26:38.868Z,2.37
2019-05-30T00:29:08.088Z,2.33
2019-05-30T00:31:57.437Z,3.00
2019-05-30T00:34:27.803Z,2.50
2019-05-30T00:46:11.790Z,3.13
2019-05-30T00:48:40.946Z,2.97
2019-05-30T00:51:12.661Z,2.97
2019-05-30T00:53:41.739Z,2.80
2019-05-30T00:56:11.188Z,3.83
2019-05-30T00:58:40.342Z,3.23
2019-05-30T01:01:09.544Z,3.13
2019-05-30T01:03:38.648Z,3.90
2019-05-30T01:06:07.770Z,3.70
2019-05-30T01:08:36.813Z,3.73
2019-05-30T01:11:07.267Z,2.90
2019-05-30T01:13:36.578Z,3.67
2019-05-30T01:16:05.666Z,3.20
2019-05-30T01:18:34.846Z,4.07
2019-05-30T01:21:05.294Z,3.63
2019-05-30T01:23:36.265Z,2.97
2019-05-30T01:26:05.535Z,3.47
2019-05-30T01:28:34.589Z,4.23
2019-05-30T01:31:10.990Z,3.77
2019-05-30T01:33:40.808Z,4.13
2019-05-30T01:36:09.853Z,3.17
2019-05-30T01:38:38.927Z,4.40
2019-05-30T01:41:08.126Z,2.90
2019-05-30T01:43:37.244Z,4.07
2019-05-30T01:46:06.900Z,4.10
2019-05-30T01:48:36.060Z,4.47
2019-05-30T01:51:06.457Z,5.10
2019-05-30T01:53:35.653Z,5.20
2019-05-30T01:56:06.858Z,4.10
2019-05-30T01:58:35.927Z,4.13
2019-05-30T02:01:18.899Z,4.37
2019-05-30T02:03:35.880Z,4.43
2019-05-30T02:06:05.566Z,3.77
2019-05-30T02:08:34.678Z,5.17
2019-05-30T02:11:07.523Z,4.60
2019-05-30T02:13:36.828Z,4.90
2019-05-30T02:16:05.903Z,4.63
2019-05-30T02:18:35.196Z,3.53
2019-05-30T02:21:04.392Z,4.10
2019-05-30T02:23:33.452Z,4.47
2019-05-30T02:26:02.444Z,4.27
2019-05-30T02:28:35.382Z,5.87
2019-05-30T02:31:05.263Z,5.40
2019-05-30T02:33:36.302Z,3.77
2019-05-30T02:36:06.338Z,6.30
2019-05-30T02:38:36.272Z,4.27
2019-05-30T02:41:10.501Z,4.27
2019-05-30T02:43:43.815Z,7.10
2019-05-30T02:46:13.020Z,5.27
2019-05-30T02:48:58.051Z,6.10
2019-05-30T02:51:12.972Z,5.50
2019-05-30T02:53:42.212Z,6.73
2019-05-30T02:56:13.283Z,6.57
2019-05-30T02:58:42.079Z,6.67
2019-05-30T03:01:14.472Z,7.10
2019-05-30T03:03:43.905Z,10.53
2019-05-30T03:06:14.584Z,11.47
2019-05-30T03:08:43.736Z,7.83
2019-05-30T03:11:15.288Z,10.97
2019-05-30T03:13:49.549Z,9.33
2019-05-30T03:16:18.672Z,11.10
2019-05-30T03:18:49.652Z,6.67
2019-05-30T03:21:18.479Z,9.73
2019-05-30T03:23:47.596Z,14.70
2019-05-30T03:26:19.448Z,11.03
2019-05-30T03:28:53.612Z,13.00
2019-05-30T03:31:29.931Z,11.80
2019-05-30T03:34:05.024Z,10.70
2019-05-30T03:36:32.746Z,11.80
2019-05-30T03:39:03.245Z,12.23
2019-05-30T03:41:35.587Z,16.33
2019-05-30T03:44:15.496Z,18.20
2019-05-30T03:46:48.280Z,15.53
2019-05-30T03:49:20.108Z,14.63
2019-05-30T03:51:50.785Z,13.57
2019-05-30T03:54:20.349Z,15.43
2019-05-30T03:56:55.242Z,17.40
2019-05-30T03:59:32.749Z,13.80
2019-05-30T04:02:20.059Z,11.57
2019-05-30T04:05:00.682Z,17.07
2019-05-30T04:07:39.205Z,14.07
2019-05-30T04:10:13.517Z,11.50
2019-05-30T04:13:12.116Z,12.47
2019-05-30T04:15:42.181Z,16.93
2019-05-30T04:18:16.334Z,17.33
2019-05-30T04:20:45.099Z,14.10
2019-05-30T04:23:14.831Z,16.70
2019-05-30T04:25:49.092Z,14.00
2019-05-30T04:28:18.771Z,12.73
2019-05-30T04:30:50.725Z,14.57
2019-05-30T04:33:32.664Z,13.93
2019-05-30T04:35:55.701Z,10.60
2019-05-30T04:38:24.764Z,10.77
2019-05-30T04:40:56.618Z,8.90
2019-05-30T04:43:26.111Z,9.73
2019-05-30T04:45:55.082Z,8.37
2019-05-30T04:48:24.416Z,5.87
2019-05-30T04:50:55.282Z,7.67
2019-05-30T04:53:24.442Z,7.87
2019-05-30T04:55:56.617Z,9.20
2019-05-30T04:58:25.705Z,6.17
2019-05-30T05:00:54.848Z,13.37
2019-05-30T05:03:44.088Z,8.90
2019-05-30T05:05:57.293Z,7.47
2019-05-30T05:08:26.369Z,6.77
2019-05-30T05:10:55.387Z,6.60
2019-05-30T05:13:24.584Z,4.27
2019-05-30T05:15:53.560Z,6.70
2019-05-30T05:18:23.797Z,5.33
2019-05-30T05:20:52.919Z,6.23
2019-05-30T05:23:24.716Z,4.50
2019-05-30T05:26:00.721Z,6.13
2019-05-30T05:28:27.319Z,8.77
2019-05-30T05:31:02.639Z,9.00
2019-05-30T05:33:34.855Z,8.47
2019-05-30T05:36:03.976Z,7.73
2019-05-30T05:38:32.887Z,8.80
2019-05-30T05:41:01.943Z,5.83
2019-05-30T05:43:34.244Z,6.23
2019-05-30T05:46:03.432Z,6.10
2019-05-30T05:48:37.033Z,8.30
2019-05-30T05:51:06.227Z,7.17
2019-05-30T05:53:37.311Z,9.33
2019-05-30T05:56:06.381Z,11.03
2019-05-30T05:58:37.526Z,9.10
2019-05-30T06:01:07.028Z,5.60
2019-05-30T06:03:40.159Z,10.63
2019-05-30T06:06:06.817Z,9.67
2019-05-30T06:08:39.964Z,8.20
2019-05-30T06:11:06.588Z,7.80
2019-05-30T06:13:35.560Z,7.57
2019-05-30T06:16:04.700Z,8.97
2019-05-30T06:18:33.792Z,8.53
2019-05-30T06:21:04.384Z,13.80
2019-05-30T06:23:33.493Z,9.57
2019-05-30T06:26:02.591Z,9.03
2019-05-30T06:28:31.745Z,8.50
2019-05-30T06:31:02.472Z,7.77
2019-05-30T06:33:37.700Z,6.97
2019-05-30T06:36:06.947Z,8.13
2019-05-30T06:38:35.988Z,11.30
2019-05-30T06:41:05.064Z,7.70
2019-05-30T06:43:34.273Z,8.90
2019-05-30T06:46:05.697Z,8.57
2019-05-30T06:48:36.600Z,7.50
2019-05-30T06:51:05.716Z,9.73
2019-05-30T06:53:36.097Z,10.57
2019-05-30T06:56:05.372Z,8.10
2019-05-30T06:58:47.972Z,8.50
2019-05-30T07:01:07.443Z,7.33
2019-05-30T07:03:39.412Z,6.33
2019-05-30T07:06:33.967Z,5.87
2019-05-30T07:12:44.312Z,7.50
2019-05-30T07:19:04.247Z,8.97
2019-05-30T07:25:07.840Z,6.17
2019-05-30T07:31:34.402Z,8.13
2019-05-30T07:47:07.446Z,7.73
2019-05-30T08:04:47.103Z,7.00
2019-05-30T08:17:01.224Z,6.83
2019-05-30T08:19:38.183Z,4.90
2019-05-30T08:27:18.142Z,4.90
2019-05-30T08:27:40.858Z,7.20
2019-05-30T08:30:11.200Z,7.57
2019-05-30T08:32:40.273Z,5.70
2019-05-30T08:35:09.614Z,7.17
2019-05-30T08:38:17.172Z,5.27
2019-05-30T08:40:46.156Z,5.67
2019-05-30T08:44:02.576Z,5.57
2019-05-30T08:46:32.293Z,4.13
2019-05-30T08:49:02.023Z,5.13
2019-05-30T08:51:34.143Z,8.07
2019-05-30T08:57:32.326Z,6.47
2019-05-30T09:00:22.404Z,6.47
2019-05-30T09:03:09.716Z,5.23
2019-05-30T09:06:15.909Z,6.63
2019-05-30T09:09:19.292Z,5.50
2019-05-30T09:19:07.029Z,7.63
2019-05-30T09:21:55.323Z,5.27
2019-05-30T09:27:48.232Z,5.23
2019-05-30T09:40:25.432Z,4.00
2019-05-30T09:42:59.833Z,3.80
2019-05-30T09:45:29.080Z,5.40
2019-05-30T09:48:17.329Z,5.30
2019-05-30T09:50:46.831Z,4.00
2019-05-30T09:53:37.313Z,5.03
2019-05-30T09:56:08.146Z,4.57
2019-05-30T09:58:43.841Z,6.60
2019-05-30T10:01:38.101Z,6.30
2019-05-30T10:04:29.730Z,4.90
2019-05-30T10:07:08.513Z,6.17
2019-05-30T10:09:53.026Z,4.23
2019-05-30T10:12:57.120Z,4.93
2019-05-30T10:15:35.679Z,5.70
2019-05-30T10:18:22.253Z,5.50
2019-05-30T10:21:19.106Z,5.20
2019-05-30T10:23:54.472Z,6.43
2019-05-30T10:26:29.453Z,6.07
2019-05-30T10:29:07.617Z,5.77
2019-05-30T10:31:36.747Z,5.00
2019-05-30T10:34:06.315Z,6.97
2019-05-30T10:36:55.918Z,6.67
2019-05-30T10:39:45.556Z,6.93
2019-05-30T10:42:22.857Z,6.00
2019-05-30T10:44:52.923Z,8.43
2019-05-30T10:51:17.089Z,4.77
2019-05-30T10:54:13.488Z,5.80
2019-05-30T10:57:43.322Z,6.53
2019-05-30T11:00:19.697Z,5.13
2019-05-30T11:03:14.014Z,7.30
2019-05-30T11:05:47.538Z,4.97
2019-05-30T11:09:17.344Z,6.27
2019-05-30T11:11:48.616Z,5.33
2019-05-30T11:14:21.302Z,7.00
2019-05-30T11:17:15.518Z,5.70
2019-05-30T11:20:17.326Z,6.77
2019-05-30T11:22:48.166Z,5.70
2019-05-30T11:25:46.417Z,6.80
2019-05-30T11:28:34.930Z,5.37
2019-05-30T11:31:22.850Z,5.17
2019-05-30T11:34:32.699Z,6.20
2019-05-30T11:40:39.115Z,5.63
2019-05-30T11:46:37.053Z,5.70
2019-05-30T11:49:34.311Z,5.67
2019-05-30T11:52:10.406Z,6.07
2019-05-30T11:55:30.811Z,5.17
2019-05-30T11:58:32.660Z,4.50
2019-05-30T12:04:44.055Z,5.13
2019-05-30T12:06:40.988Z,4.73
2019-05-30T12:12:43.409Z,5.67
2019-05-30T12:18:53.961Z,5.93
2019-05-30T12:21:42.309Z,5.10
2019-05-30T12:24:31.271Z,6.00
2019-05-30T12:27:19.750Z,6.90
2019-05-30T12:32:44.866Z,5.83
2019-05-30T12:35:39.317Z,3.90
2019-05-30T12:38:18.437Z,6.67
2019-05-30T12:44:25.925Z,4.50
2019-05-30T12:47:27.248Z,5.20
2019-05-30T12:50:16.823Z,6.23
2019-05-30T12:53:35.037Z,5.33
2019-05-30T12:56:07.623Z,4.73
2019-05-30T13:02:34.138Z,6.37
2019-05-30T13:08:18.039Z,3.87
2019-05-30T13:10:48.284Z,5.80
2019-05-30T13:13:45.767Z,4.53
2019-05-30T13:16:23.297Z,6.13
2019-05-30T13:22:17.041Z,6.20
2019-05-30T13:24:57.975Z,4.83
2019-05-30T13:31:12.840Z,3.40
2019-05-30T13:34:14.361Z,4.20
2019-05-30T13:40:23.050Z,3.13
2019-05-30T13:42:57.767Z,3.30
2019-05-30T13:45:34.574Z,3.17
2019-05-30T13:48:15.205Z,3.07
2019-05-30T13:51:31.626Z,4.00
2019-05-30T13:54:12.970Z,2.33
2019-05-30T13:57:20.749Z,3.90
2019-05-30T14:00:01.902Z,2.53
2019-05-30T14:03:10.890Z,3.33
2019-05-30T14:05:49.812Z,2.70
2019-05-30T14:08:41.645Z,2.63
2019-05-30T14:11:27.680Z,2.97
2019-05-30T14:14:00.530Z,2.77
2019-05-30T14:16:38.032Z,2.70
2019-05-30T14:19:45.565Z,3.07
2019-05-30T14:22:22.874Z,3.17
2019-05-30T14:25:39.267Z,3.03
2019-05-30T14:28:39.808Z,3.60
2019-05-30T14:31:20.245Z,2.50
2019-05-30T14:33:57.185Z,2.23
2019-05-30T14:36:45.846Z,3.37
2019-05-30T14:39:45.984Z,2.93
2019-05-30T14:49:01.426Z,2.83
2019-05-30T15:27:37.200Z,4.23
2019-05-30T15:46:20.568Z,3.63
2019-05-30T15:51:48.885Z,2.33
2019-05-30T15:52:02.702Z,3.70
2019-05-30T15:54:19.140Z,3.65
2019-05-30T15:57:13.330Z,4.27
2019-05-30T16:03:05.409Z,2.50
2019-05-30T16:05:37.872Z,2.27
2019-05-30T16:08:32.974Z,2.57
2019-05-30T16:13:48.751Z,2.70
2019-05-30T16:16:43.006Z,2.50
2019-05-30T16:19:26.408Z,3.40
2019-05-30T16:24:54.312Z,2.53
2019-05-30T16:27:23.444Z,3.47
2019-05-30T16:29:52.497Z,2.90
2019-05-30T16:32:22.204Z,1.77
2019-05-30T16:35:15.960Z,3.00
2019-05-30T16:37:51.625Z,2.73
2019-05-30T16:40:33.398Z,2.20
2019-05-30T16:43:02.565Z,1.93
2019-05-30T16:45:50.831Z,2.53
2019-05-30T16:48:20.485Z,2.70
2019-05-30T16:50:49.605Z,3.10
2019-05-30T16:53:19.085Z,3.20
2019-05-30T16:55:49.499Z,3.57
2019-05-30T16:58:37.649Z,6.07
2019-05-30T17:01:08.505Z,3.90
2019-05-30T17:03:37.639Z,1.97
2019-05-30T17:06:06.728Z,3.80
2019-05-30T17:08:36.013Z,3.67
2019-05-30T17:11:05.163Z,3.07
2019-05-30T17:13:34.408Z,3.13
2019-05-30T17:16:03.637Z,2.73
2019-05-30T17:18:34.298Z,4.50
2019-05-30T17:21:26.749Z,4.43
2019-05-30T17:23:56.030Z,3.87
2019-05-30T17:26:25.455Z,3.70
2019-05-30T17:29:13.726Z,4.63
2019-05-30T17:31:42.815Z,3.43
2019-05-30T17:34:11.960Z,2.90
2019-05-30T17:37:02.870Z,4.83
2019-05-30T17:39:52.174Z,3.97
2019-05-30T17:42:33.057Z,2.83
2019-05-30T17:45:02.105Z,4.93
2019-05-30T17:47:31.384Z,2.50
2019-05-30T17:50:00.527Z,5.37
2019-05-30T17:52:29.975Z,5.27
2019-05-30T17:54:59.352Z,4.30
2019-05-30T17:57:28.445Z,3.97
2019-05-30T17:59:57.709Z,3.83
2019-05-30T18:02:54.161Z,4.67
2019-05-30T18:05:42.435Z,3.50
2019-05-30T18:08:15.204Z,4.13
2019-05-30T18:10:53.808Z,3.43
2019-05-30T18:13:23.307Z,4.60
2019-05-30T18:15:55.888Z,5.03
2019-05-30T18:18:25.362Z,4.27
2019-05-30T18:21:13.606Z,4.17
2019-05-30T18:23:44.796Z,3.87
2019-05-30T18:26:13.486Z,4.43
2019-05-30T18:29:04.851Z,5.03
2019-05-30T18:31:34.284Z,3.37
2019-05-30T18:34:03.359Z,5.47
2019-05-30T18:36:32.720Z,5.10
2019-05-30T18:39:01.897Z,4.60
2019-05-30T18:41:50.072Z,5.80
2019-05-30T18:44:20.368Z,5.83
2019-05-30T18:47:08.794Z,5.27
2019-05-30T18:49:37.825Z,4.40
2019-05-30T18:52:06.949Z,5.63
2019-05-30T18:54:36.886Z,5.67
2019-05-30T18:57:06.088Z,4.60
2019-05-30T18:59:35.219Z,4.77
2019-05-30T19:02:04.320Z,3.40
2019-05-30T19:04:33.677Z,4.80
2019-05-30T19:07:02.911Z,5.57
2019-05-30T19:09:33.409Z,5.83
2019-05-30T19:12:02.610Z,5.33
2019-05-30T19:14:34.090Z,3.43
2019-05-30T19:17:02.519Z,4.57
2019-05-30T19:19:31.831Z,5.83
2019-05-30T19:22:00.881Z,4.33
2019-05-30T19:24:30.059Z,3.87
2019-05-30T19:26:59.121Z,6.40
2019-05-30T19:29:28.981Z,4.30
2019-05-30T19:31:58.072Z,3.50
2019-05-30T19:34:27.141Z,2.30
2019-05-30T19:36:56.268Z,4.43
2019-05-30T19:39:25.557Z,4.37
2019-05-30T19:41:57.351Z,5.17
2019-05-30T19:44:25.587Z,4.47
2019-05-30T19:46:54.597Z,3.70
2019-05-30T19:49:23.748Z,5.77
2019-05-30T19:51:52.806Z,5.30
2019-05-30T19:54:21.911Z,4.03
2019-05-30T19:56:51.074Z,4.30
2019-05-30T19:59:20.132Z,3.87
2019-05-30T20:01:49.249Z,2.90
2019-05-30T20:04:51.881Z,3.20
2019-05-30T20:07:43.139Z,3.70
2019-05-30T20:10:32.727Z,3.90
2019-05-30T20:13:01.947Z,4.13
2019-05-30T20:15:31.314Z,4.30
2019-05-30T20:18:00.596Z,5.03
2019-05-30T20:20:44.090Z,3.30
2019-05-30T20:23:00.581Z,3.97
2019-05-30T20:25:57.817Z,3.73
2019-05-30T20:28:46.176Z,4.07
2019-05-30T20:31:17.149Z,4.40
2019-05-30T20:34:05.368Z,5.10
2019-05-30T20:36:46.952Z,5.03
2019-05-30T20:39:27.009Z,4.57
2019-05-30T20:42:19.179Z,6.10
2019-05-30T20:45:07.784Z,4.47
2019-05-30T20:47:42.230Z,3.53
2019-05-30T20:50:30.457Z,2.43
2019-05-30T20:53:20.321Z,4.83
2019-05-30T20:56:07.032Z,3.57
2019-05-30T20:58:55.492Z,5.43
2019-05-30T21:01:24.679Z,3.67
2019-05-30T21:03:53.907Z,5.07
2019-05-30T21:06:42.965Z,6.50
2019-05-30T21:09:27.797Z,6.47
2019-05-30T21:11:46.555Z,4.73
2019-05-30T21:14:21.005Z,5.23
2019-05-30T21:16:54.031Z,4.67
2019-05-30T21:19:23.221Z,6.33
2019-05-30T21:21:52.229Z,5.17
2019-05-30T21:24:40.667Z,5.97
2019-05-30T21:27:09.720Z,5.17
2019-05-30T21:29:39.009Z,6.07
2019-05-30T21:32:08.184Z,4.87
2019-05-30T21:34:37.789Z,3.57
2019-05-30T21:37:26.161Z,6.67
2019-05-30T21:39:55.422Z,2.73
2019-05-30T21:43:06.772Z,4.70
2019-05-30T21:45:43.025Z,5.20
2019-05-30T21:48:12.183Z,5.83
2019-05-30T21:50:44.468Z,6.67
2019-05-30T21:53:31.343Z,4.77
2019-05-30T21:56:00.460Z,6.20
2019-05-30T21:58:48.730Z,5.07
2019-05-30T22:01:37.302Z,5.33
2019-05-30T22:04:09.683Z,8.73
2019-05-30T22:06:38.800Z,6.70
2019-05-30T22:09:09.966Z,7.03
2019-05-30T22:11:39.353Z,6.47
2019-05-30T22:14:10.260Z,5.50
2019-05-30T22:16:42.225Z,7.13
2019-05-30T22:19:11.297Z,4.87
2019-05-30T22:21:40.404Z,6.67
2019-05-30T22:24:09.484Z,7.83
2019-05-30T22:26:38.548Z,4.53
2019-05-30T22:29:07.637Z,6.80
2019-05-30T22:31:36.724Z,4.67
2019-05-30T22:34:05.809Z,8.30
2019-05-30T22:36:35.058Z,4.13
2019-05-30T22:39:05.568Z,5.77
2019-05-30T22:41:53.748Z,5.93
2019-05-30T22:44:22.768Z,7.77
2019-05-30T22:46:52.297Z,7.53
2019-05-30T22:49:40.635Z,5.77
2019-05-30T22:52:21.877Z,7.03
2019-05-30T22:54:51.220Z,2.77
2019-05-30T22:57:20.423Z,10.30
2019-05-30T23:00:08.766Z,8.90
2019-05-30T23:02:39.544Z,7.10
2019-05-30T23:05:41.692Z,9.57
2019-05-30T23:11:12.311Z,11.30
2019-05-30T23:14:13.386Z,8.27
2019-05-30T23:16:46.123Z,10.53
2019-05-30T23:22:44.064Z,4.37
2019-05-30T23:25:17.000Z,9.17
2019-05-30T23:27:49.511Z,9.60
2019-05-30T23:28:10.361Z,6.50
2019-05-30T23:33:35.369Z,10.67
2019-05-30T23:36:04.532Z,11.07
2019-05-30T23:38:52.781Z,9.80
2019-05-30T23:41:21.996Z,9.20
2019-05-30T23:44:16.241Z,9.87
2019-05-30T23:52:58.223Z,6.10
2019-05-30T23:55:30.604Z,5.33
